x

Smith Island, Wa (sisw1) Weather Station

10:00 - Tue 26th Sep 2017 All times are PDT. -7 hours from GMT.

  • Wind
  • Ar Temp 56°f
  • Sea Pressure 1023.2mb
  • Smith Island, Wa
  • Smith Island, Wa

More Historic Weather Station data

Upgrade to MSW Pro to gain access to the past 30 days of data for over 8000 Wavebouys and Weather Stations around the globe.

Join

Comparision Forecast

View Surf forecast
   
Ter 09/26 10:00  -  2 mph 1023.2mb 56f
9:00  -  1 mph 1022.8mb 54f
8:00 7 7 mph 1022.7mb 52f
7:00 3 3 mph 1022.3mb 52f
6:00 3 3 mph 1022mb 52f
5:00 3 3 mph 1021.8mb 52f
4:00 3 3 mph 1021.6mb 52f
3:00  -  0 mph 1021.3mb 53f
2:00 3 3 mph 1021.1mb 52f
1:00 2 2 mph 1020.7mb 54f
12:00 5 5 mph 1020.4mb 54f
Seg 09/25 11:00 7 8 mph 1020.3mb 54f
10:00 6 6 mph 1020mb 55f
9:00 6 6 mph 1019.8mb 56f
8:00 7 7 mph 1019.6mb 56f
7:00 6 6 mph 1019.4mb 56f
6:00  -  1 mph 1019.3mb 59f
5:00  -  1 mph 1019.2mb 60f
4:00 1 3 mph 1019.1mb 60f
3:00 5 5 mph 1019.6mb 59f
2:00 3 5 mph 1019.5mb 58f
1:00 5 5 mph 1019.6mb 58f
12:00 5 6 mph 1019.2mb 58f
11:00 3 5 mph 1019.4mb 56f
10:00 5 6 mph 1019.3mb 55f
9:00 9 9 mph 1019.1mb 54f
8:00 6 7 mph 1019.1mb 53f
7:00 6 7 mph 1018.9mb 53f
6:00 6 7 mph 1018.8mb 53f
5:00 7 8 mph 1018.8mb 53f
4:00 2 5 mph 1018.7mb 53f
3:00 10 11 mph 1018.8mb 53f
2:00 16 17 mph 1018.9mb 53f
1:00 17 18 mph 1018.7mb 53f
12:00 18 20 mph 1018.9mb 53f
Dom 09/24 11:00 15 20 mph 1018.8mb 53f
10:00 15 20 mph 1018.7mb 53f
9:00 18 21 mph 1019mb 54f
8:00 16 17 mph 1019mb 54f
7:00 8 9 mph 1019.2mb 53f
6:00 8 8 mph 1019.5mb 53f
5:00 6 7 mph 1019.9mb 55f
4:00 5 5 mph 1020.1mb 54f
3:00 7 11 mph 1020.6mb 51f
2:00 5 6 mph 1020.5mb 55f
1:00 6 6 mph 1020.8mb 55f
12:00 1 2 mph 1021mb 53f
11:00 1 2 mph 1021.3mb 51f
10:00 2 5 mph 1021.5mb 50f
9:00 5 6 mph 1021.2mb 51f
8:00  -  1 mph 1021.4mb 50f
7:00  -  1 mph 1020.6mb 49f
6:00  -  0 mph 1020.8mb 49f
5:00 13 14 mph 1021.2mb 51f
4:00 6 8 mph 1020.8mb 51f
3:00 6 7 mph 1020.7mb 51f
2:00 5 6 mph 1020.4mb 52f
1:00 2 3 mph 1020.3mb 52f
12:00 3 5 mph 1020.2mb 53f
Sáb 09/23 11:00 3 5 mph 1020.1mb 53f
10:00 5 5 mph 1020mb 52f
9:00 10 14 mph 1019.6mb 53f
8:00 9 11 mph 1019.7mb 53f
7:00 9 10 mph 1019.4mb 53f
6:00 8 10 mph 1019.3mb 54f
5:00 7 7 mph 1019.4mb 58f
4:00 7 7 mph 1019.3mb 58f
3:00 6 6 mph 1019.2mb 59f
2:00 3 5 mph 1019.4mb 58f
1:00  -  2 mph 1019.3mb 59f
12:00 3 3 mph 1019.4mb 59f
11:00 3 5 mph 1019.6mb 59f
10:00 3 6 mph 1019.3mb 57f
9:00 5 5 mph 1018.9mb 54f
8:00 5 5 mph 1018.6mb 53f
7:00 8 8 mph 1017.9mb 51f
6:00 7 7 mph 1017.5mb 52f
5:00 8 10 mph 1017.1mb 52f
4:00 13 14 mph 1017.2mb 52f
3:00 16 22 mph 1017mb 53f
2:00 20 21 mph 1017mb 54f
1:00 15 16 mph 1017.1mb 53f
12:00 13 14 mph 1016.8mb 53f
Sex 09/22 11:00 8 9 mph 1016.7mb 52f
10:00 6 7 mph 1016.7mb 52f
9:00 6 6 mph 1017mb 52f
8:00 5 5 mph 1016.8mb 53f
7:00 1 1 mph 1016.7mb 54f